sensor_id;sensor_type;location;lat;lon;timestamp;P1;durP1;ratioP1;P2;durP2;ratioP2
10277;SDS011;5184;51.376;7.148;2022-12-10T00:02:06;48.17;;;26.37;;
10277;SDS011;5184;51.376;7.148;2022-12-10T00:04:33;46.30;;;25.00;;
10277;SDS011;5184;51.376;7.148;2022-12-10T00:07:00;43.90;;;24.23;;
10277;SDS011;5184;51.376;7.148;2022-12-10T00:09:27;47.57;;;24.43;;
10277;SDS011;5184;51.376;7.148;2022-12-10T00:11:55;50.93;;;25.93;;
10277;SDS011;5184;51.376;7.148;2022-12-10T00:14:21;49.53;;;25.83;;
10277;SDS011;5184;51.376;7.148;2022-12-10T00:16:49;56.93;;;29.30;;
10277;SDS011;5184;51.376;7.148;2022-12-10T00:19:16;51.43;;;26.80;;
10277;SDS011;5184;51.376;7.148;2022-12-10T00:21:43;52.33;;;27.23;;
10277;SDS011;5184;51.376;7.148;2022-12-10T00:24:10;52.27;;;26.73;;
10277;SDS011;5184;51.376;7.148;2022-12-10T00:26:38;53.37;;;28.40;;
10277;SDS011;5184;51.376;7.148;2022-12-10T00:29:08;56.87;;;26.70;;
10277;SDS011;5184;51.376;7.148;2022-12-10T00:31:31;51.87;;;26.20;;
10277;SDS011;5184;51.376;7.148;2022-12-10T00:33:59;52.07;;;27.33;;
10277;SDS011;5184;51.376;7.148;2022-12-10T00:36:28;54.37;;;26.47;;
10277;SDS011;5184;51.376;7.148;2022-12-10T00:38:51;59.23;;;28.50;;
10277;SDS011;5184;51.376;7.148;2022-12-10T00:41:18;51.73;;;25.80;;
10277;SDS011;5184;51.376;7.148;2022-12-10T00:43:45;51.50;;;27.20;;
10277;SDS011;5184;51.376;7.148;2022-12-10T00:46:12;54.93;;;27.80;;
10277;SDS011;5184;51.376;7.148;2022-12-10T00:48:39;56.77;;;27.53;;
10277;SDS011;5184;51.376;7.148;2022-12-10T00:51:09;49.67;;;26.83;;
10277;SDS011;5184;51.376;7.148;2022-12-10T00:53:35;55.63;;;27.17;;
10277;SDS011;5184;51.376;7.148;2022-12-10T00:56:02;53.40;;;26.73;;
10277;SDS011;5184;51.376;7.148;2022-12-10T00:58:31;55.17;;;27.63;;
10277;SDS011;5184;51.376;7.148;2022-12-10T01:03:48;54.87;;;27.90;;
10277;SDS011;5184;51.376;7.148;2022-12-10T01:06:15;55.23;;;27.23;;
10277;SDS011;5184;51.376;7.148;2022-12-10T01:08:42;58.23;;;28.03;;
10277;SDS011;5184;51.376;7.148;2022-12-10T01:11:09;60.90;;;27.47;;
10277;SDS011;5184;51.376;7.148;2022-12-10T01:13:36;56.27;;;26.60;;
10277;SDS011;5184;51.376;7.148;2022-12-10T01:16:04;62.73;;;29.27;;
10277;SDS011;5184;51.376;7.148;2022-12-10T01:18:32;57.47;;;27.27;;
10277;SDS011;5184;51.376;7.148;2022-12-10T01:21:02;56.57;;;28.73;;
10277;SDS011;5184;51.376;7.148;2022-12-10T01:23:27;55.17;;;27.17;;
10277;SDS011;5184;51.376;7.148;2022-12-10T01:25:54;54.23;;;26.67;;
10277;SDS011;5184;51.376;7.148;2022-12-10T01:28:21;57.57;;;29.17;;
10277;SDS011;5184;51.376;7.148;2022-12-10T01:30:47;54.77;;;27.03;;
10277;SDS011;5184;51.376;7.148;2022-12-10T01:33:15;57.57;;;26.70;;
10277;SDS011;5184;51.376;7.148;2022-12-10T01:35:41;55.30;;;25.67;;
10277;SDS011;5184;51.376;7.148;2022-12-10T01:38:08;61.20;;;29.03;;
10277;SDS011;5184;51.376;7.148;2022-12-10T01:40:36;53.00;;;26.37;;
10277;SDS011;5184;51.376;7.148;2022-12-10T01:43:03;56.33;;;27.17;;
10277;SDS011;5184;51.376;7.148;2022-12-10T01:45:30;53.03;;;26.70;;
10277;SDS011;5184;51.376;7.148;2022-12-10T01:47:57;51.03;;;25.50;;
10277;SDS011;5184;51.376;7.148;2022-12-10T01:50:24;54.87;;;27.20;;
10277;SDS011;5184;51.376;7.148;2022-12-10T01:52:51;48.53;;;25.30;;
10277;SDS011;5184;51.376;7.148;2022-12-10T01:55:52;59.27;;;27.03;;
10277;SDS011;5184;51.376;7.148;2022-12-10T01:58:04;55.63;;;26.67;;
10277;SDS011;5184;51.376;7.148;2022-12-10T02:00:32;50.20;;;25.23;;
10277;SDS011;5184;51.376;7.148;2022-12-10T02:03:00;58.43;;;26.13;;
10277;SDS011;5184;51.376;7.148;2022-12-10T02:05:32;51.43;;;26.53;;
10277;SDS011;5184;51.376;7.148;2022-12-10T02:08:06;51.33;;;26.60;;
10277;SDS011;5184;51.376;7.148;2022-12-10T02:10:38;62.07;;;28.23;;
10277;SDS011;5184;51.376;7.148;2022-12-10T02:13:14;60.47;;;27.10;;
10277;SDS011;5184;51.376;7.148;2022-12-10T02:15:49;63.20;;;30.03;;
10277;SDS011;5184;51.376;7.148;2022-12-10T02:18:19;68.83;;;31.47;;
10277;SDS011;5184;51.376;7.148;2022-12-10T02:20:44;69.30;;;31.50;;
10277;SDS011;5184;51.376;7.148;2022-12-10T02:23:12;69.77;;;32.23;;
10277;SDS011;5184;51.376;7.148;2022-12-10T02:25:41;76.87;;;31.63;;
10277;SDS011;5184;51.376;7.148;2022-12-10T02:28:19;67.73;;;29.57;;
10277;SDS011;5184;51.376;7.148;2022-12-10T02:30:57;63.23;;;27.47;;
10277;SDS011;5184;51.376;7.148;2022-12-10T02:33:24;74.93;;;31.60;;
10277;SDS011;5184;51.376;7.148;2022-12-10T02:35:52;68.13;;;30.10;;
10277;SDS011;5184;51.376;7.148;2022-12-10T02:38:24;71.13;;;30.30;;
10277;SDS011;5184;51.376;7.148;2022-12-10T02:40:50;68.53;;;30.83;;
10277;SDS011;5184;51.376;7.148;2022-12-10T02:43:16;75.43;;;32.20;;
10277;SDS011;5184;51.376;7.148;2022-12-10T02:45:43;89.63;;;30.63;;
10277;SDS011;5184;51.376;7.148;2022-12-10T02:48:10;75.83;;;30.03;;
10277;SDS011;5184;51.376;7.148;2022-12-10T02:50:36;70.23;;;30.30;;
10277;SDS011;5184;51.376;7.148;2022-12-10T02:53:03;73.43;;;28.80;;
10277;SDS011;5184;51.376;7.148;2022-12-10T02:58:02;66.87;;;28.60;;
10277;SDS011;5184;51.376;7.148;2022-12-10T03:00:29;75.03;;;28.87;;
10277;SDS011;5184;51.376;7.148;2022-12-10T03:05:41;80.23;;;29.33;;
10277;SDS011;5184;51.376;7.148;2022-12-10T03:08:22;64.97;;;29.47;;
10277;SDS011;5184;51.376;7.148;2022-12-10T03:10:59;63.30;;;29.90;;
10277;SDS011;5184;51.376;7.148;2022-12-10T03:13:29;65.13;;;27.93;;
10277;SDS011;5184;51.376;7.148;2022-12-10T03:15:54;62.13;;;29.50;;
10277;SDS011;5184;51.376;7.148;2022-12-10T03:18:22;62.87;;;29.93;;
10277;SDS011;5184;51.376;7.148;2022-12-10T03:20:48;59.20;;;27.97;;
10277;SDS011;5184;51.376;7.148;2022-12-10T03:23:15;65.00;;;28.83;;
10277;SDS011;5184;51.376;7.148;2022-12-10T03:25:41;59.33;;;29.87;;
10277;SDS011;5184;51.376;7.148;2022-12-10T03:28:08;57.23;;;27.53;;
10277;SDS011;5184;51.376;7.148;2022-12-10T03:30:35;58.73;;;28.40;;
10277;SDS011;5184;51.376;7.148;2022-12-10T03:33:02;60.83;;;27.63;;
10277;SDS011;5184;51.376;7.148;2022-12-10T03:35:28;62.53;;;27.93;;
10277;SDS011;5184;51.376;7.148;2022-12-10T03:37:56;62.77;;;28.23;;
10277;SDS011;5184;51.376;7.148;2022-12-10T03:40:23;65.60;;;30.53;;
10277;SDS011;5184;51.376;7.148;2022-12-10T03:42:50;62.13;;;28.07;;
10277;SDS011;5184;51.376;7.148;2022-12-10T03:45:16;56.53;;;26.90;;
10277;SDS011;5184;51.376;7.148;2022-12-10T03:47:43;58.60;;;28.47;;
10277;SDS011;5184;51.376;7.148;2022-12-10T03:50:10;64.20;;;28.77;;
10277;SDS011;5184;51.376;7.148;2022-12-10T03:52:37;59.63;;;27.57;;
10277;SDS011;5184;51.376;7.148;2022-12-10T03:55:04;60.73;;;26.97;;
10277;SDS011;5184;51.376;7.148;2022-12-10T03:57:32;58.10;;;27.60;;
10277;SDS011;5184;51.376;7.148;2022-12-10T03:59:59;53.07;;;26.67;;
10277;SDS011;5184;51.376;7.148;2022-12-10T04:02:26;55.33;;;27.47;;
10277;SDS011;5184;51.376;7.148;2022-12-10T04:04:52;55.80;;;27.87;;
10277;SDS011;5184;51.376;7.148;2022-12-10T04:07:19;56.80;;;27.33;;
10277;SDS011;5184;51.376;7.148;2022-12-10T04:09:46;53.87;;;25.97;;
10277;SDS011;5184;51.376;7.148;2022-12-10T04:12:13;58.80;;;26.83;;
10277;SDS011;5184;51.376;7.148;2022-12-10T04:14:39;49.77;;;26.17;;
10277;SDS011;5184;51.376;7.148;2022-12-10T04:17:22;56.00;;;26.50;;
10277;SDS011;5184;51.376;7.148;2022-12-10T04:19:49;49.03;;;24.13;;
10277;SDS011;5184;51.376;7.148;2022-12-10T04:22:15;55.30;;;26.63;;
10277;SDS011;5184;51.376;7.148;2022-12-10T04:24:48;55.40;;;27.10;;
10277;SDS011;5184;51.376;7.148;2022-12-10T04:27:21;53.73;;;26.70;;
10277;SDS011;5184;51.376;7.148;2022-12-10T04:29:48;53.27;;;25.57;;
10277;SDS011;5184;51.376;7.148;2022-12-10T04:32:15;53.33;;;27.13;;
10277;SDS011;5184;51.376;7.148;2022-12-10T04:34:41;50.50;;;24.47;;
10277;SDS011;5184;51.376;7.148;2022-12-10T04:37:08;49.70;;;25.40;;
10277;SDS011;5184;51.376;7.148;2022-12-10T04:39:35;51.40;;;24.73;;
10277;SDS011;5184;51.376;7.148;2022-12-10T04:42:02;49.53;;;24.73;;
10277;SDS011;5184;51.376;7.148;2022-12-10T04:44:28;51.57;;;26.67;;
10277;SDS011;5184;51.376;7.148;2022-12-10T04:46:56;54.50;;;26.47;;
10277;SDS011;5184;51.376;7.148;2022-12-10T04:49:23;54.70;;;26.20;;
10277;SDS011;5184;51.376;7.148;2022-12-10T04:51:50;46.30;;;23.70;;
10277;SDS011;5184;51.376;7.148;2022-12-10T04:54:16;48.17;;;24.43;;
10277;SDS011;5184;51.376;7.148;2022-12-10T04:56:43;51.63;;;26.17;;
10277;SDS011;5184;51.376;7.148;2022-12-10T04:59:11;50.63;;;25.90;;
10277;SDS011;5184;51.376;7.148;2022-12-10T05:01:37;51.20;;;24.20;;
10277;SDS011;5184;51.376;7.148;2022-12-10T05:04:05;49.30;;;25.23;;
10277;SDS011;5184;51.376;7.148;2022-12-10T05:06:32;52.57;;;26.73;;
10277;SDS011;5184;51.376;7.148;2022-12-10T05:08:58;52.93;;;26.47;;
10277;SDS011;5184;51.376;7.148;2022-12-10T05:11:25;52.67;;;25.60;;
10277;SDS011;5184;51.376;7.148;2022-12-10T05:13:52;56.30;;;28.00;;
10277;SDS011;5184;51.376;7.148;2022-12-10T05:16:19;53.60;;;26.20;;
10277;SDS011;5184;51.376;7.148;2022-12-10T05:18:45;49.97;;;25.30;;
10277;SDS011;5184;51.376;7.148;2022-12-10T05:21:13;53.03;;;26.33;;
10277;SDS011;5184;51.376;7.148;2022-12-10T05:23:40;49.40;;;25.20;;
10277;SDS011;5184;51.376;7.148;2022-12-10T05:26:08;54.93;;;26.37;;
10277;SDS011;5184;51.376;7.148;2022-12-10T05:28:34;47.27;;;24.73;;
10277;SDS011;5184;51.376;7.148;2022-12-10T05:31:00;46.60;;;24.20;;
10277;SDS011;5184;51.376;7.148;2022-12-10T05:33:27;49.47;;;25.30;;
10277;SDS011;5184;51.376;7.148;2022-12-10T05:35:53;52.90;;;26.40;;
10277;SDS011;5184;51.376;7.148;2022-12-10T05:38:22;48.13;;;25.33;;
10277;SDS011;5184;51.376;7.148;2022-12-10T05:40:49;46.33;;;23.83;;
10277;SDS011;5184;51.376;7.148;2022-12-10T05:43:17;51.80;;;24.77;;
10277;SDS011;5184;51.376;7.148;2022-12-10T05:45:43;51.40;;;25.70;;
10277;SDS011;5184;51.376;7.148;2022-12-10T05:48:11;45.30;;;24.40;;
10277;SDS011;5184;51.376;7.148;2022-12-10T05:50:37;50.30;;;25.60;;
10277;SDS011;5184;51.376;7.148;2022-12-10T05:53:04;47.90;;;23.67;;
10277;SDS011;5184;51.376;7.148;2022-12-10T05:55:31;45.00;;;23.50;;
10277;SDS011;5184;51.376;7.148;2022-12-10T05:57:59;44.77;;;23.50;;
10277;SDS011;5184;51.376;7.148;2022-12-10T06:00:26;47.80;;;23.70;;
10277;SDS011;5184;51.376;7.148;2022-12-10T06:02:53;45.30;;;23.57;;
10277;SDS011;5184;51.376;7.148;2022-12-10T06:05:19;44.00;;;22.80;;
10277;SDS011;5184;51.376;7.148;2022-12-10T06:07:46;42.53;;;21.47;;
10277;SDS011;5184;51.376;7.148;2022-12-10T06:10:12;39.63;;;21.00;;
10277;SDS011;5184;51.376;7.148;2022-12-10T06:12:41;36.80;;;20.47;;
10277;SDS011;5184;51.376;7.148;2022-12-10T06:15:07;41.87;;;21.20;;
10277;SDS011;5184;51.376;7.148;2022-12-10T06:17:35;39.27;;;21.23;;
10277;SDS011;5184;51.376;7.148;2022-12-10T06:20:02;41.97;;;21.03;;
10277;SDS011;5184;51.376;7.148;2022-12-10T06:22:29;39.17;;;21.90;;
10277;SDS011;5184;51.376;7.148;2022-12-10T06:24:56;43.00;;;22.73;;
10277;SDS011;5184;51.376;7.148;2022-12-10T06:27:23;36.03;;;20.00;;
10277;SDS011;5184;51.376;7.148;2022-12-10T06:29:50;40.90;;;21.00;;
10277;SDS011;5184;51.376;7.148;2022-12-10T06:32:16;40.10;;;21.47;;
10277;SDS011;5184;51.376;7.148;2022-12-10T06:34:43;35.97;;;20.97;;
10277;SDS011;5184;51.376;7.148;2022-12-10T06:37:10;38.93;;;20.87;;
10277;SDS011;5184;51.376;7.148;2022-12-10T06:39:38;40.07;;;21.17;;
10277;SDS011;5184;51.376;7.148;2022-12-10T06:42:05;40.20;;;21.13;;
10277;SDS011;5184;51.376;7.148;2022-12-10T06:44:32;35.00;;;19.97;;
10277;SDS011;5184;51.376;7.148;2022-12-10T06:46:58;45.47;;;22.03;;
10277;SDS011;5184;51.376;7.148;2022-12-10T06:49:25;39.33;;;20.87;;
10277;SDS011;5184;51.376;7.148;2022-12-10T06:51:52;42.93;;;22.97;;
10277;SDS011;5184;51.376;7.148;2022-12-10T06:54:20;43.17;;;23.10;;
10277;SDS011;5184;51.376;7.148;2022-12-10T06:56:46;39.33;;;22.23;;
10277;SDS011;5184;51.376;7.148;2022-12-10T06:59:14;44.43;;;23.13;;
10277;SDS011;5184;51.376;7.148;2022-12-10T07:01:41;45.40;;;22.37;;
10277;SDS011;5184;51.376;7.148;2022-12-10T07:04:07;41.77;;;22.17;;
10277;SDS011;5184;51.376;7.148;2022-12-10T07:06:34;45.73;;;23.13;;
10277;SDS011;5184;51.376;7.148;2022-12-10T07:09:01;41.03;;;21.90;;
10277;SDS011;5184;51.376;7.148;2022-12-10T07:11:28;45.17;;;23.87;;
10277;SDS011;5184;51.376;7.148;2022-12-10T07:13:55;41.57;;;22.77;;
10277;SDS011;5184;51.376;7.148;2022-12-10T07:16:23;38.50;;;21.97;;
10277;SDS011;5184;51.376;7.148;2022-12-10T07:18:48;40.83;;;21.73;;
10277;SDS011;5184;51.376;7.148;2022-12-10T07:21:16;39.40;;;22.13;;
10277;SDS011;5184;51.376;7.148;2022-12-10T07:23:42;46.03;;;23.73;;
10277;SDS011;5184;51.376;7.148;2022-12-10T07:26:09;40.13;;;21.63;;
10277;SDS011;5184;51.376;7.148;2022-12-10T07:28:35;41.30;;;22.17;;
10277;SDS011;5184;51.376;7.148;2022-12-10T07:31:03;42.63;;;23.37;;
10277;SDS011;5184;51.376;7.148;2022-12-10T07:33:29;44.17;;;23.43;;
10277;SDS011;5184;51.376;7.148;2022-12-10T07:35:58;42.70;;;23.47;;
10277;SDS011;5184;51.376;7.148;2022-12-10T07:38:24;46.70;;;23.83;;
10277;SDS011;5184;51.376;7.148;2022-12-10T07:40:51;43.90;;;24.17;;
10277;SDS011;5184;51.376;7.148;2022-12-10T07:43:19;47.70;;;25.20;;
10277;SDS011;5184;51.376;7.148;2022-12-10T07:45:46;44.10;;;21.80;;
10277;SDS011;5184;51.376;7.148;2022-12-10T07:48:13;43.33;;;22.23;;
10277;SDS011;5184;51.376;7.148;2022-12-10T07:50:39;46.70;;;24.30;;
10277;SDS011;5184;51.376;7.148;2022-12-10T07:53:07;44.07;;;23.73;;
10277;SDS011;5184;51.376;7.148;2022-12-10T07:55:33;40.93;;;22.03;;
10277;SDS011;5184;51.376;7.148;2022-12-10T07:58:01;44.63;;;23.20;;
10277;SDS011;5184;51.376;7.148;2022-12-10T08:00:27;44.07;;;23.20;;
10277;SDS011;5184;51.376;7.148;2022-12-10T08:02:54;43.33;;;23.27;;
10277;SDS011;5184;51.376;7.148;2022-12-10T08:05:20;48.47;;;25.40;;
10277;SDS011;5184;51.376;7.148;2022-12-10T08:07:48;54.77;;;27.23;;
10277;SDS011;5184;51.376;7.148;2022-12-10T08:10:15;49.43;;;24.90;;
10277;SDS011;5184;51.376;7.148;2022-12-10T08:12:42;53.20;;;26.50;;
10277;SDS011;5184;51.376;7.148;2022-12-10T08:15:08;55.87;;;25.93;;
10277;SDS011;5184;51.376;7.148;2022-12-10T08:17:35;65.20;;;28.90;;
10277;SDS011;5184;51.376;7.148;2022-12-10T08:20:04;63.77;;;29.07;;
10277;SDS011;5184;51.376;7.148;2022-12-10T08:22:31;59.40;;;28.13;;
10277;SDS011;5184;51.376;7.148;2022-12-10T08:24:58;73.57;;;30.90;;
10277;SDS011;5184;51.376;7.148;2022-12-10T08:27:24;67.47;;;28.60;;
10277;SDS011;5184;51.376;7.148;2022-12-10T08:29:51;81.17;;;29.87;;
10277;SDS011;5184;51.376;7.148;2022-12-10T08:32:17;76.30;;;30.70;;
10277;SDS011;5184;51.376;7.148;2022-12-10T08:34:44;68.23;;;30.63;;
10277;SDS011;5184;51.376;7.148;2022-12-10T08:37:11;83.70;;;31.57;;
10277;SDS011;5184;51.376;7.148;2022-12-10T08:39:38;66.60;;;29.83;;
10277;SDS011;5184;51.376;7.148;2022-12-10T08:42:05;84.80;;;33.77;;
10277;SDS011;5184;51.376;7.148;2022-12-10T08:44:31;79.43;;;32.07;;
10277;SDS011;5184;51.376;7.148;2022-12-10T08:46:58;85.80;;;33.57;;
10277;SDS011;5184;51.376;7.148;2022-12-10T08:49:25;75.23;;;32.17;;
10277;SDS011;5184;51.376;7.148;2022-12-10T08:51:52;79.63;;;32.17;;
10277;SDS011;5184;51.376;7.148;2022-12-10T08:54:18;74.80;;;30.40;;
10277;SDS011;5184;51.376;7.148;2022-12-10T08:56:45;75.47;;;31.07;;
10277;SDS011;5184;51.376;7.148;2022-12-10T08:59:12;70.93;;;30.17;;
10277;SDS011;5184;51.376;7.148;2022-12-10T09:01:39;65.67;;;29.87;;
10277;SDS011;5184;51.376;7.148;2022-12-10T09:04:06;72.30;;;30.63;;
10277;SDS011;5184;51.376;7.148;2022-12-10T09:06:32;71.37;;;30.40;;
10277;SDS011;5184;51.376;7.148;2022-12-10T09:08:59;70.53;;;32.23;;
10277;SDS011;5184;51.376;7.148;2022-12-10T09:11:27;71.10;;;32.33;;
10277;SDS011;5184;51.376;7.148;2022-12-10T09:13:52;74.63;;;31.87;;
10277;SDS011;5184;51.376;7.148;2022-12-10T09:16:19;79.87;;;35.70;;
10277;SDS011;5184;51.376;7.148;2022-12-10T09:18:46;68.63;;;33.20;;
10277;SDS011;5184;51.376;7.148;2022-12-10T09:21:14;75.97;;;33.93;;
10277;SDS011;5184;51.376;7.148;2022-12-10T09:23:40;69.27;;;33.80;;
10277;SDS011;5184;51.376;7.148;2022-12-10T09:26:08;79.00;;;35.90;;
10277;SDS011;5184;51.376;7.148;2022-12-10T09:28:34;76.63;;;34.10;;
10277;SDS011;5184;51.376;7.148;2022-12-10T09:31:00;72.83;;;33.60;;
10277;SDS011;5184;51.376;7.148;2022-12-10T09:33:27;65.20;;;32.33;;
10277;SDS011;5184;51.376;7.148;2022-12-10T09:35:53;66.07;;;31.10;;
10277;SDS011;5184;51.376;7.148;2022-12-10T09:38:20;68.57;;;30.97;;
10277;SDS011;5184;51.376;7.148;2022-12-10T09:40:51;71.00;;;31.30;;
10277;SDS011;5184;51.376;7.148;2022-12-10T09:43:41;72.40;;;33.13;;
10277;SDS011;5184;51.376;7.148;2022-12-10T09:46:23;70.23;;;31.00;;
10277;SDS011;5184;51.376;7.148;2022-12-10T09:48:54;66.40;;;31.07;;
10277;SDS011;5184;51.376;7.148;2022-12-10T09:51:25;72.47;;;34.30;;
10277;SDS011;5184;51.376;7.148;2022-12-10T09:53:51;68.60;;;31.73;;
10277;SDS011;5184;51.376;7.148;2022-12-10T09:56:21;72.10;;;32.30;;
10277;SDS011;5184;51.376;7.148;2022-12-10T09:58:47;74.10;;;33.83;;
10277;SDS011;5184;51.376;7.148;2022-12-10T10:01:15;69.13;;;33.30;;
10277;SDS011;5184;51.376;7.148;2022-12-10T10:03:40;73.20;;;35.13;;
10277;SDS011;5184;51.376;7.148;2022-12-10T10:06:08;76.33;;;33.43;;
10277;SDS011;5184;51.376;7.148;2022-12-10T10:08:38;66.63;;;31.63;;
10277;SDS011;5184;51.376;7.148;2022-12-10T10:11:08;70.87;;;32.73;;
10277;SDS011;5184;51.376;7.148;2022-12-10T10:13:36;72.63;;;33.43;;
10277;SDS011;5184;51.376;7.148;2022-12-10T10:16:22;72.87;;;32.03;;
10277;SDS011;5184;51.376;7.148;2022-12-10T10:19:02;69.63;;;33.53;;
10277;SDS011;5184;51.376;7.148;2022-12-10T10:21:33;72.07;;;35.00;;
10277;SDS011;5184;51.376;7.148;2022-12-10T10:23:59;73.17;;;35.03;;
10277;SDS011;5184;51.376;7.148;2022-12-10T10:26:26;69.07;;;34.03;;
10277;SDS011;5184;51.376;7.148;2022-12-10T10:28:55;67.90;;;33.80;;
10277;SDS011;5184;51.376;7.148;2022-12-10T10:31:26;69.07;;;34.97;;
10277;SDS011;5184;51.376;7.148;2022-12-10T10:33:53;61.07;;;30.60;;
10277;SDS011;5184;51.376;7.148;2022-12-10T10:36:22;64.03;;;32.90;;
10277;SDS011;5184;51.376;7.148;2022-12-10T10:38:47;66.60;;;31.73;;
10277;SDS011;5184;51.376;7.148;2022-12-10T10:41:13;63.47;;;31.93;;
10277;SDS011;5184;51.376;7.148;2022-12-10T10:43:41;66.73;;;34.53;;
10277;SDS011;5184;51.376;7.148;2022-12-10T10:46:12;66.27;;;33.17;;
10277;SDS011;5184;51.376;7.148;2022-12-10T10:48:38;66.10;;;33.60;;
10277;SDS011;5184;51.376;7.148;2022-12-10T10:51:06;61.20;;;31.13;;
10277;SDS011;5184;51.376;7.148;2022-12-10T10:53:32;63.13;;;31.53;;
10277;SDS011;5184;51.376;7.148;2022-12-10T10:56:04;63.77;;;32.80;;
10277;SDS011;5184;51.376;7.148;2022-12-10T10:58:27;61.50;;;31.47;;
10277;SDS011;5184;51.376;7.148;2022-12-10T11:00:59;71.70;;;34.27;;
10277;SDS011;5184;51.376;7.148;2022-12-10T11:03:25;67.70;;;33.03;;
10277;SDS011;5184;51.376;7.148;2022-12-10T11:05:51;66.30;;;35.43;;
10277;SDS011;5184;51.376;7.148;2022-12-10T11:08:18;74.60;;;35.80;;
10277;SDS011;5184;51.376;7.148;2022-12-10T11:10:49;68.93;;;33.97;;
10277;SDS011;5184;51.376;7.148;2022-12-10T11:13:19;67.00;;;32.77;;
10277;SDS011;5184;51.376;7.148;2022-12-10T11:15:56;64.43;;;32.80;;
10277;SDS011;5184;51.376;7.148;2022-12-10T11:18:23;67.47;;;33.47;;
10277;SDS011;5184;51.376;7.148;2022-12-10T11:21:00;65.87;;;34.63;;
10277;SDS011;5184;51.376;7.148;2022-12-10T11:23:30;68.50;;;37.37;;
10277;SDS011;5184;51.376;7.148;2022-12-10T11:26:09;63.43;;;32.37;;
10277;SDS011;5184;51.376;7.148;2022-12-10T11:28:32;66.33;;;32.83;;
10277;SDS011;5184;51.376;7.148;2022-12-10T11:31:03;70.83;;;33.70;;
10277;SDS011;5184;51.376;7.148;2022-12-10T11:33:31;70.10;;;35.70;;
10277;SDS011;5184;51.376;7.148;2022-12-10T11:36:06;62.77;;;32.47;;
10277;SDS011;5184;51.376;7.148;2022-12-10T11:38:47;60.33;;;30.93;;
10277;SDS011;5184;51.376;7.148;2022-12-10T11:41:17;67.27;;;32.33;;
10277;SDS011;5184;51.376;7.148;2022-12-10T11:43:52;62.90;;;33.30;;
10277;SDS011;5184;51.376;7.148;2022-12-10T11:46:25;73.63;;;36.43;;
10277;SDS011;5184;51.376;7.148;2022-12-10T11:48:55;58.43;;;31.87;;
10277;SDS011;5184;51.376;7.148;2022-12-10T11:51:35;60.47;;;31.00;;
10277;SDS011;5184;51.376;7.148;2022-12-10T11:54:21;57.27;;;30.53;;
10277;SDS011;5184;51.376;7.148;2022-12-10T11:59:40;58.60;;;30.87;;
10277;SDS011;5184;51.376;7.148;2022-12-10T12:02:15;60.43;;;30.93;;
10277;SDS011;5184;51.376;7.148;2022-12-10T12:07:55;59.47;;;30.97;;
10277;SDS011;5184;51.376;7.148;2022-12-10T12:10:09;57.50;;;31.27;;
10277;SDS011;5184;51.376;7.148;2022-12-10T12:12:44;57.27;;;31.97;;
10277;SDS011;5184;51.376;7.148;2022-12-10T12:16:00;60.27;;;30.47;;
10277;SDS011;5184;51.376;7.148;2022-12-10T12:18:47;56.10;;;29.57;;
10277;SDS011;5184;51.376;7.148;2022-12-10T12:21:01;59.23;;;31.13;;
10277;SDS011;5184;51.376;7.148;2022-12-10T12:23:29;59.90;;;31.83;;
10277;SDS011;5184;51.376;7.148;2022-12-10T12:25:57;61.17;;;31.40;;
10277;SDS011;5184;51.376;7.148;2022-12-10T12:30:59;62.63;;;31.57;;
10277;SDS011;5184;51.376;7.148;2022-12-10T12:33:28;61.80;;;30.47;;
10277;SDS011;5184;51.376;7.148;2022-12-10T12:35:58;61.33;;;30.57;;
10277;SDS011;5184;51.376;7.148;2022-12-10T12:38:28;54.63;;;30.80;;
10277;SDS011;5184;51.376;7.148;2022-12-10T12:41:01;57.97;;;28.83;;
10277;SDS011;5184;51.376;7.148;2022-12-10T12:43:28;59.30;;;30.70;;
10277;SDS011;5184;51.376;7.148;2022-12-10T12:45:52;56.33;;;29.37;;
10277;SDS011;5184;51.376;7.148;2022-12-10T12:48:20;57.20;;;28.27;;
10277;SDS011;5184;51.376;7.148;2022-12-10T12:50:53;55.40;;;29.77;;
10277;SDS011;5184;51.376;7.148;2022-12-10T12:53:21;61.43;;;30.63;;
10277;SDS011;5184;51.376;7.148;2022-12-10T12:56:05;59.57;;;31.47;;
10277;SDS011;5184;51.376;7.148;2022-12-10T12:58:40;54.23;;;28.13;;
10277;SDS011;5184;51.376;7.148;2022-12-10T13:01:08;48.10;;;27.43;;
10277;SDS011;5184;51.376;7.148;2022-12-10T13:03:48;48.40;;;26.27;;
10277;SDS011;5184;51.376;7.148;2022-12-10T13:06:16;50.17;;;26.40;;
10277;SDS011;5184;51.376;7.148;2022-12-10T13:08:42;54.10;;;28.13;;
10277;SDS011;5184;51.376;7.148;2022-12-10T13:11:18;54.47;;;27.17;;
10277;SDS011;5184;51.376;7.148;2022-12-10T13:16:48;53.47;;;28.50;;
10277;SDS011;5184;51.376;7.148;2022-12-10T13:21:57;44.50;;;24.17;;
10277;SDS011;5184;51.376;7.148;2022-12-10T13:27:18;46.80;;;24.10;;
10277;SDS011;5184;51.376;7.148;2022-12-10T13:29:47;51.37;;;26.30;;
10277;SDS011;5184;51.376;7.148;2022-12-10T13:32:21;51.27;;;25.63;;
10277;SDS011;5184;51.376;7.148;2022-12-10T13:37:30;44.23;;;23.83;;
10277;SDS011;5184;51.376;7.148;2022-12-10T13:40:00;50.30;;;25.40;;
10277;SDS011;5184;51.376;7.148;2022-12-10T13:42:28;47.90;;;25.63;;
10277;SDS011;5184;51.376;7.148;2022-12-10T13:45:00;52.60;;;25.53;;
10277;SDS011;5184;51.376;7.148;2022-12-10T13:47:42;49.03;;;24.23;;
10277;SDS011;5184;51.376;7.148;2022-12-10T13:50:17;46.63;;;24.20;;
10277;SDS011;5184;51.376;7.148;2022-12-10T13:56:37;50.97;;;25.63;;
10277;SDS011;5184;51.376;7.148;2022-12-10T13:58:21;48.33;;;25.00;;
10277;SDS011;5184;51.376;7.148;2022-12-10T14:00:49;47.33;;;25.73;;
10277;SDS011;5184;51.376;7.148;2022-12-10T14:03:24;54.47;;;29.17;;
10277;SDS011;5184;51.376;7.148;2022-12-10T14:05:49;49.17;;;26.53;;
10277;SDS011;5184;51.376;7.148;2022-12-10T14:08:16;54.13;;;27.93;;
10277;SDS011;5184;51.376;7.148;2022-12-10T14:10:40;54.50;;;27.50;;
10277;SDS011;5184;51.376;7.148;2022-12-10T14:13:10;53.50;;;26.83;;
10277;SDS011;5184;51.376;7.148;2022-12-10T14:15:34;50.43;;;27.10;;
10277;SDS011;5184;51.376;7.148;2022-12-10T14:18:08;45.67;;;25.97;;
10277;SDS011;5184;51.376;7.148;2022-12-10T14:20:29;48.73;;;24.90;;
10277;SDS011;5184;51.376;7.148;2022-12-10T14:22:56;46.57;;;25.47;;
10277;SDS011;5184;51.376;7.148;2022-12-10T14:25:24;49.50;;;26.57;;
10277;SDS011;5184;51.376;7.148;2022-12-10T14:27:51;48.67;;;26.27;;
10277;SDS011;5184;51.376;7.148;2022-12-10T14:30:19;52.77;;;26.97;;
10277;SDS011;5184;51.376;7.148;2022-12-10T14:32:45;52.70;;;27.63;;
10277;SDS011;5184;51.376;7.148;2022-12-10T14:35:16;55.47;;;29.67;;
10277;SDS011;5184;51.376;7.148;2022-12-10T14:37:43;59.80;;;30.20;;
10277;SDS011;5184;51.376;7.148;2022-12-10T14:40:09;53.23;;;28.00;;
10277;SDS011;5184;51.376;7.148;2022-12-10T14:42:38;52.77;;;28.60;;
10277;SDS011;5184;51.376;7.148;2022-12-10T14:45:05;46.17;;;26.13;;
10277;SDS011;5184;51.376;7.148;2022-12-10T14:47:35;58.40;;;29.10;;
10277;SDS011;5184;51.376;7.148;2022-12-10T14:50:00;53.87;;;28.30;;
10277;SDS011;5184;51.376;7.148;2022-12-10T14:52:34;50.93;;;28.23;;
10277;SDS011;5184;51.376;7.148;2022-12-10T14:55:04;59.07;;;29.60;;
10277;SDS011;5184;51.376;7.148;2022-12-10T14:57:34;56.73;;;29.73;;
10277;SDS011;5184;51.376;7.148;2022-12-10T15:00:18;56.50;;;29.00;;
10277;SDS011;5184;51.376;7.148;2022-12-10T15:02:45;48.77;;;26.43;;
10277;SDS011;5184;51.376;7.148;2022-12-10T15:05:12;51.47;;;28.03;;
10277;SDS011;5184;51.376;7.148;2022-12-10T15:07:38;56.53;;;29.47;;
10277;SDS011;5184;51.376;7.148;2022-12-10T15:10:07;53.57;;;29.00;;
10277;SDS011;5184;51.376;7.148;2022-12-10T15:12:37;55.50;;;28.80;;